Time;durP1;ratioP1;P1;durP2;ratioP2;P2;SDS_P1;SDS_P2;PMS_P1;PMS_P2;Temp;Humidity;BMP_temperature;BMP_pressure;BME280_temperature;BME280_humidity;BME280_pressure;Samples;Min_cycle;Max_cycle;Signal;HPM_P1;HPM_P2
2023/08/01 00:01:57;;;;;;;;;0.00;0.00;;;;;27.50;47.67;100250.19;5098915;27;45323;-69
2023/08/01 00:04:22;;;;;;;;;0.00;0.00;;;;;27.49;47.29;100243.22;5099394;27;45323;-68
2023/08/01 00:06:47;;;;;;;;;0.00;0.00;;;;;27.51;47.08;100256.31;5098987;27;46097;-69
2023/08/01 00:09:13;;;;;;;;;0.00;0.00;;;;;27.52;47.29;100265.97;5099243;27;45374;-68
2023/08/01 00:11:38;;;;;;;;;0.00;0.00;;;;;27.52;47.12;100249.94;5099307;27;45388;-69
2023/08/01 00:14:03;;;;;;;;;0.00;0.00;;;;;27.53;46.70;100254.25;5099240;27;45356;-68
2023/08/01 00:16:29;;;;;;;;;0.00;0.00;;;;;27.52;46.94;100261.44;5098703;27;45421;-69
2023/08/01 00:18:54;;;;;;;;;0.00;0.00;;;;;27.53;47.51;100262.28;5098835;27;45475;-69
2023/08/01 00:21:19;;;;;;;;;0.00;0.00;;;;;27.51;47.30;100259.00;5099278;27;45308;-68
2023/08/01 00:23:45;;;;;;;;;0.00;0.00;;;;;27.52;46.72;100256.09;5099021;27;45220;-69
2023/08/01 00:26:10;;;;;;;;;0.00;0.00;;;;;27.52;46.82;100244.59;5098846;27;46113;-68
2023/08/01 00:28:35;;;;;;;;;1.00;0.00;;;;;27.44;47.50;100236.94;5098884;27;45302;-68
2023/08/01 00:31:08;;;;;;;;;0.00;0.00;;;;;27.50;47.12;100249.38;5097430;27;45628;-68
2023/08/01 00:33:34;;;;;;;;;0.00;0.00;;;;;27.49;47.12;100251.22;5098701;27;45464;-68
2023/08/01 00:35:59;;;;;;;;;0.00;0.00;;;;;27.47;47.38;100252.50;5098512;27;46831;-68
2023/08/01 00:38:24;;;;;;;;;0.00;0.00;;;;;27.50;46.85;100260.88;5098676;27;45240;-69
2023/08/01 00:40:50;;;;;;;;;0.00;0.00;;;;;27.50;47.46;100257.38;5098898;27;45490;-68
2023/08/01 00:43:15;;;;;;;;;0.00;0.00;;;;;27.48;47.10;100252.25;5098930;27;45354;-68
2023/08/01 00:45:41;;;;;;;;;0.00;0.00;;;;;27.49;46.99;100258.41;5098095;27;46255;-68
2023/08/01 00:48:06;;;;;;;;;0.00;0.00;;;;;27.49;47.20;100258.41;5098428;27;45341;-68
2023/08/01 00:50:33;;;;;;;;;0.67;0.00;;;;;27.49;46.88;100253.06;5098685;27;45173;-68
2023/08/01 00:52:58;;;;;;;;;1.00;0.00;;;;;27.48;46.73;100241.56;5098523;27;45360;-68
2023/08/01 00:55:24;;;;;;;;;0.00;0.00;;;;;27.48;47.45;100244.25;5098102;27;46305;-69
2023/08/01 00:57:50;;;;;;;;;0.00;0.00;;;;;27.49;47.39;100247.72;5098427;27;45330;-69
2023/08/01 01:00:16;;;;;;;;;0.00;0.00;;;;;27.48;46.99;100244.25;5098185;27;45407;-69
2023/08/01 01:02:42;;;;;;;;;0.00;0.00;;;;;27.49;47.49;100245.06;5098180;27;45398;-68
2023/08/01 01:05:07;;;;;;;;;0.00;0.00;;;;;27.48;46.95;100249.59;5098053;27;47189;-68
2023/08/01 01:07:33;;;;;;;;;0.00;0.00;;;;;27.47;46.75;100252.50;5098167;27;45479;-68
2023/08/01 01:09:58;;;;;;;;;1.00;0.00;;;;;27.48;47.26;100246.13;5098516;27;45319;-68
2023/08/01 01:12:24;;;;;;;;;0.00;0.00;;;;;27.47;47.30;100247.97;5098306;27;45647;-68
2023/08/01 01:14:49;;;;;;;;;0.00;0.00;;;;;27.48;46.55;100249.59;5097798;27;45455;-68
2023/08/01 01:17:15;;;;;;;;;0.00;0.00;;;;;27.47;47.22;100244.47;5098259;27;45361;-68
2023/08/01 01:19:40;;;;;;;;;0.00;0.00;;;;;27.49;46.64;100245.06;5098372;27;45347;-68
2023/08/01 01:22:07;;;;;;;;;0.00;0.00;;;;;27.49;47.22;100245.88;5098350;27;45263;-68
2023/08/01 01:24:35;;;;;;;;;0.00;0.00;;;;;27.49;46.87;100253.91;5098153;27;45450;-68
2023/08/01 01:27:03;;;;;;;;;0.00;0.00;;;;;27.49;47.14;100248.56;5097342;27;45478;-69
2023/08/01 01:29:29;;;;;;;;;0.00;0.00;;;;;27.51;47.22;100259.81;5096415;27;45383;-68
2023/08/01 01:31:56;;;;;;;;;0.00;0.00;;;;;27.49;46.41;100261.91;5098089;27;45309;-68
2023/08/01 01:34:21;;;;;;;;;0.00;0.00;;;;;27.49;46.52;100259.22;5097710;27;45299;-68
2023/08/01 01:36:47;;;;;;;;;0.00;0.00;;;;;27.46;46.60;100251.69;5097530;27;50933;-68
2023/08/01 01:39:12;;;;;;;;;0.00;0.00;;;;;27.48;46.77;100262.94;5097937;27;45279;-68
2023/08/01 01:41:37;;;;;;;;;0.00;0.00;;;;;27.48;46.63;100265.63;5096785;27;45375;-68
2023/08/01 01:44:03;;;;;;;;;0.00;0.00;;;;;27.47;46.68;100263.19;5096961;27;46264;-68
2023/08/01 01:46:28;;;;;;;;;0.00;0.00;;;;;27.47;47.21;100263.19;5096986;27;45318;-69
2023/08/01 01:48:53;;;;;;;;;0.00;0.00;;;;;27.48;46.88;100264.81;5096425;27;45573;-68
2023/08/01 01:51:21;;;;;;;;;0.00;0.00;;;;;27.46;47.18;100264.22;5097177;27;45361;-68
2023/08/01 01:53:46;;;;;;;;;0.00;0.00;;;;;27.46;47.21;100275.72;5097485;27;46558;-69
2023/08/01 01:56:11;;;;;;;;;2.00;0.00;;;;;27.46;46.81;100273.06;5097020;27;45354;-69
2023/08/01 01:58:37;;;;;;;;;0.00;0.00;;;;;27.47;47.22;100276.53;5097461;27;45616;-68
2023/08/01 02:01:02;;;;;;;;;0.00;0.00;;;;;27.46;46.59;100274.91;5097364;27;45399;-69
2023/08/01 02:03:27;;;;;;;;;1.00;0.00;;;;;27.44;47.17;100275.16;5097078;27;46019;-69
2023/08/01 02:05:53;;;;;;;;;0.00;0.00;;;;;27.44;46.74;100280.50;5097338;27;45456;-69
2023/08/01 02:08:18;;;;;;;;;0.00;0.00;;;;;27.44;46.59;100285.84;5097481;27;45525;-68
2023/08/01 02:10:43;;;;;;;;;0.00;0.00;;;;;27.42;46.49;100281.75;5096899;27;45772;-68
2023/08/01 02:13:09;;;;;;;;;1.00;0.00;;;;;27.43;46.78;100284.19;5097154;27;45331;-68
2023/08/01 02:15:34;;;;;;;;;0.00;0.00;;;;;27.45;47.08;100300.00;5095966;27;45795;-68
2023/08/01 02:17:59;;;;;;;;;0.00;0.00;;;;;27.45;46.83;100292.00;5097099;27;45438;-68
2023/08/01 02:20:25;;;;;;;;;0.00;0.00;;;;;27.44;46.83;100288.50;5097291;27;45370;-69
2023/08/01 02:22:50;;;;;;;;;0.00;0.00;;;;;27.44;47.04;100288.50;5096942;27;47050;-68
2023/08/01 02:25:15;;;;;;;;;0.00;0.00;;;;;27.45;47.03;100283.97;5095383;27;47854;-69
2023/08/01 02:27:41;;;;;;;;;0.00;0.00;;;;;27.46;46.48;100288.25;5097208;27;45383;-68
2023/08/01 02:30:07;;;;;;;;;0.00;0.00;;;;;27.46;47.08;100294.41;5097076;27;45365;-69
2023/08/01 02:32:32;;;;;;;;;1.00;0.00;;;;;27.46;46.40;100293.59;5096922;27;46188;-68
2023/08/01 02:34:57;;;;;;;;;1.00;0.00;;;;;27.47;46.37;100295.25;5096937;27;45342;-68
2023/08/01 02:37:22;;;;;;;;;0.00;0.00;;;;;27.46;46.33;100288.25;5097067;27;45248;-68
2023/08/01 02:39:48;;;;;;;;;0.00;0.00;;;;;27.46;46.79;100291.75;5096693;27;45299;-68
2023/08/01 02:42:13;;;;;;;;;0.00;0.00;;;;;27.47;46.25;100296.06;5096814;27;45435;-69
2023/08/01 02:44:38;;;;;;;;;0.00;0.00;;;;;27.45;46.29;100286.66;5096924;27;45200;-68
2023/08/01 02:47:05;;;;;;;;;0.00;0.00;;;;;27.45;46.88;100300.00;5096664;27;45283;-68
2023/08/01 02:49:31;;;;;;;;;0.00;0.00;;;;;27.45;46.41;100300.00;5096867;27;45588;-68
2023/08/01 02:51:56;;;;;;;;;0.00;0.00;;;;;27.45;46.74;100313.38;5096482;27;45329;-68
2023/08/01 02:54:21;;;;;;;;;1.00;0.00;;;;;27.43;46.31;100305.56;5096279;27;45350;-68
2023/08/01 02:56:47;;;;;;;;;1.00;0.00;;;;;27.44;46.63;100304.53;5096634;27;45397;-68
2023/08/01 02:59:12;;;;;;;;;0.00;0.00;;;;;27.41;46.65;100307.66;5096607;27;45326;-68
2023/08/01 03:01:38;;;;;;;;;0.00;0.00;;;;;27.43;46.75;100310.91;5095281;27;46826;-69
2023/08/01 03:04:05;;;;;;;;;1.00;0.00;;;;;27.44;47.05;100314.41;5096335;27;45239;-68
2023/08/01 03:06:33;;;;;;;;;0.00;0.00;;;;;27.43;46.34;100305.56;5096403;27;45281;-68
2023/08/01 03:08:59;;;;;;;;;0.00;0.00;;;;;27.41;47.08;100315.66;5096040;27;45405;-68
2023/08/01 03:11:26;;;;;;;;;0.00;0.00;;;;;27.42;46.53;100303.94;5096244;27;46060;-69
2023/08/01 03:13:51;;;;;;;;;0.00;0.00;;;;;27.43;46.46;100318.91;5096488;27;45423;-69
2023/08/01 03:16:17;;;;;;;;;0.00;0.00;;;;;27.42;46.49;100316.50;5096348;27;45368;-68
2023/08/01 03:18:43;;;;;;;;;0.00;0.00;;;;;27.41;46.69;100315.66;5096370;27;45388;-68
2023/08/01 03:21:08;;;;;;;;;0.00;0.00;;;;;27.41;47.08;100315.66;5095758;27;45986;-69
2023/08/01 03:23:33;;;;;;;;;0.00;0.00;;;;;27.41;46.76;100321.00;5095061;27;45514;-69
2023/08/01 03:25:59;;;;;;;;;0.67;0.00;;;;;27.43;46.30;100320.81;5095085;27;45568;-69
2023/08/01 03:28:26;;;;;;;;;0.00;0.00;;;;;27.43;46.54;100326.94;5096197;27;45402;-69
2023/08/01 03:30:53;;;;;;;;;0.00;0.00;;;;;27.43;46.69;100320.81;5096140;27;46386;-69
2023/08/01 03:33:18;;;;;;;;;0.00;0.00;;;;;27.43;46.24;100324.25;5096230;27;45302;-68
2023/08/01 03:35:44;;;;;;;;;0.00;0.00;;;;;27.42;46.74;100322.66;5096223;27;45443;-68
2023/08/01 03:38:09;;;;;;;;;0.00;0.00;;;;;27.41;46.50;100318.34;5095860;27;45299;-69
2023/08/01 03:40:34;;;;;;;;;0.00;0.00;;;;;27.44;46.45;100325.06;5094694;27;50378;-68
2023/08/01 03:43:00;;;;;;;;;0.00;0.00;;;;;27.44;46.70;100322.41;5096053;27;45538;-68
2023/08/01 03:45:25;;;;;;;;;0.00;0.00;;;;;27.44;46.77;100320.56;5095886;27;45654;-68
2023/08/01 03:47:50;;;;;;;;;0.00;0.00;;;;;27.44;45.98;100325.91;5095997;27;45362;-68
2023/08/01 03:50:16;;;;;;;;;0.00;0.00;;;;;27.44;46.58;100314.41;5095603;27;52602;-68
2023/08/01 03:52:41;;;;;;;;;0.00;0.00;;;;;27.43;46.12;100318.91;5095507;27;45397;-68
2023/08/01 03:55:07;;;;;;;;;0.00;0.00;;;;;27.42;46.48;100317.31;5096094;27;45248;-68
2023/08/01 03:57:33;;;;;;;;;0.00;0.00;;;;;27.44;46.22;100314.41;5095873;27;45401;-68
2023/08/01 03:59:59;;;;;;;;;0.00;0.00;;;;;27.41;46.92;100318.34;5095695;27;47005;-68
2023/08/01 04:02:25;;;;;;;;;0.00;0.00;;;;;27.42;46.71;100319.97;5095606;27;45358;-68
2023/08/01 04:04:50;;;;;;;;;0.00;0.00;;;;;27.41;46.62;100310.31;5095879;27;45259;-68
2023/08/01 04:07:16;;;;;;;;;0.00;0.00;;;;;27.42;46.29;100321.81;5095462;27;45582;-69
2023/08/01 04:09:41;;;;;;;;;0.00;0.00;;;;;27.35;46.52;100313.94;5098988;27;45310;-68
2023/08/01 04:12:06;;;;;;;;;0.00;0.00;;;;;27.41;46.14;100331.69;5099014;27;45376;-68
2023/08/01 04:14:33;;;;;;;;;0.00;0.00;;;;;27.40;46.97;100328.19;5099405;27;45337;-69
2023/08/01 04:16:58;;;;;;;;;0.00;0.00;;;;;27.38;46.28;100318.78;5099161;27;45334;-68
2023/08/01 04:19:24;;;;;;;;;1.00;0.00;;;;;27.38;46.78;100318.78;5098696;27;46046;-68
2023/08/01 04:21:50;;;;;;;;;0.00;0.00;;;;;27.39;46.30;100326.59;5098829;27;45426;-69
2023/08/01 04:24:15;;;;;;;;;0.00;0.00;;;;;27.39;46.17;100321.25;5098970;27;45327;-69
2023/08/01 04:26:40;;;;;;;;;1.00;0.00;;;;;27.36;46.38;100327.03;5098860;27;45392;-69
2023/08/01 04:29:06;;;;;;;;;0.00;0.00;;;;;27.37;46.33;100330.53;5098796;27;46297;-69
2023/08/01 04:31:31;;;;;;;;;0.00;0.00;;;;;27.40;46.43;100332.75;5098915;27;45392;-68
2023/08/01 04:33:56;;;;;;;;;0.00;0.00;;;;;27.39;46.77;100331.13;5099007;27;45365;-69
2023/08/01 04:36:22;;;;;;;;;0.00;0.00;;;;;27.39;46.04;100328.44;5098510;27;45372;-69
2023/08/01 04:38:47;;;;;;;;;1.00;0.00;;;;;27.39;46.42;100321.25;5098665;27;45950;-68
2023/08/01 04:41:12;;;;;;;;;0.00;0.00;;;;;27.39;46.75;100329.28;5098780;27;45380;-68
2023/08/01 04:43:38;;;;;;;;;0.00;0.00;;;;;27.40;46.32;100322.06;5098850;27;45714;-69
2023/08/01 04:46:03;;;;;;;;;1.00;0.00;;;;;27.38;46.54;100319.63;5098735;27;45364;-68
2023/08/01 04:48:28;;;;;;;;;0.00;0.00;;;;;27.42;46.39;100328.00;5098486;27;45961;-68
2023/08/01 04:50:54;;;;;;;;;0.00;0.00;;;;;27.42;46.38;100321.81;5098168;27;45422;-68
2023/08/01 04:53:19;;;;;;;;;0.00;0.00;;;;;27.42;46.48;100321.81;5098377;27;45466;-68
2023/08/01 04:55:44;;;;;;;;;0.00;0.00;;;;;27.42;46.19;100325.31;5098826;27;45417;-68
2023/08/01 04:58:10;;;;;;;;;0.00;0.00;;;;;27.42;46.64;100328.00;5098298;27;46107;-68
2023/08/01 05:00:36;;;;;;;;;0.00;0.00;;;;;27.43;46.60;100326.94;5098427;27;45429;-68
2023/08/01 05:03:02;;;;;;;;;0.33;0.00;;;;;27.44;46.42;100319.75;5098472;27;45535;-68
2023/08/01 05:05:27;;;;;;;;;0.00;0.00;;;;;27.45;45.89;100324.88;5097955;27;45269;-68
2023/08/01 05:07:52;;;;;;;;;0.00;0.00;;;;;27.46;46.15;100326.47;5098170;27;46393;-68
2023/08/01 05:10:18;;;;;;;;;0.67;0.67;;;;;27.47;46.18;100321.94;5098270;27;45376;-68
2023/08/01 05:12:43;;;;;;;;;0.00;0.00;;;;;27.48;45.83;100332.41;5097998;27;45307;-68
2023/08/01 05:15:09;;;;;;;;;0.00;0.00;;;;;27.50;46.56;100342.88;5098354;27;45281;-69
2023/08/01 05:17:34;;;;;;;;;0.00;0.00;;;;;27.51;45.96;100339.13;5097923;27;45665;-69
2023/08/01 05:19:59;;;;;;;;;0.00;0.00;;;;;27.50;45.86;100343.69;5096664;27;45486;-69
2023/08/01 05:22:25;;;;;;;;;0.33;0.00;;;;;27.50;46.09;100346.38;5098253;27;45384;-68
2023/08/01 05:24:50;;;;;;;;;0.00;0.00;;;;;27.49;45.71;100347.41;5098098;27;45350;-68
2023/08/01 05:27:15;;;;;;;;;0.33;0.33;;;;;27.50;46.34;100354.38;5097562;27;53569;-69
2023/08/01 05:29:41;;;;;;;;;0.00;0.00;;;;;27.49;46.40;100349.25;5098013;27;45333;-68
2023/08/01 05:32:06;;;;;;;;;3.00;1.00;;;;;27.49;46.50;100347.41;5097963;27;45430;-69
2023/08/01 05:34:32;;;;;;;;;0.67;0.00;;;;;27.48;46.58;100348.44;5097723;27;45451;-69
2023/08/01 05:36:57;;;;;;;;;0.00;0.00;;;;;27.49;46.52;100358.09;5097334;27;52969;-68
2023/08/01 05:39:22;;;;;;;;;1.00;0.00;;;;;27.48;46.37;100355.66;5097655;27;47256;-68
2023/08/01 05:41:47;;;;;;;;;0.00;0.00;;;;;27.48;46.13;100356.44;5098117;27;45255;-68
2023/08/01 05:44:13;;;;;;;;;0.00;0.00;;;;;27.48;46.42;100356.44;5096413;27;45326;-69
2023/08/01 05:46:38;;;;;;;;;0.33;0.00;;;;;27.46;45.80;100361.22;5097425;27;51072;-68
2023/08/01 05:49:03;;;;;;;;;0.67;0.67;;;;;27.48;46.32;100369.00;5097330;27;45263;-69
2023/08/01 05:51:29;;;;;;;;;0.00;0.00;;;;;27.48;46.07;100363.66;5097556;27;45290;-69
2023/08/01 05:53:54;;;;;;;;;0.00;0.00;;;;;27.48;45.65;100367.13;5097668;27;45348;-69
2023/08/01 05:56:19;;;;;;;;;0.33;0.00;;;;;27.50;46.23;100364.25;5097473;27;45365;-67
2023/08/01 05:58:45;;;;;;;;;1.33;0.00;;;;;27.51;46.19;100360.50;5097568;27;45330;-68
2023/08/01 06:01:11;;;;;;;;;1.00;0.00;;;;;27.52;45.81;100362.97;5097699;27;45299;-68
2023/08/01 06:03:37;;;;;;;;;0.00;0.00;;;;;27.50;45.99;100359.72;5095885;27;45231;-70
2023/08/01 06:06:03;;;;;;;;;1.67;1.67;;;;;27.48;44.09;100367.13;5096744;27;46046;-69
2023/08/01 06:08:28;;;;;;;;;5.00;3.00;;;;;27.32;43.58;100363.28;5096921;27;45326;-69
2023/08/01 06:10:53;;;;;;;;;2.33;1.00;;;;;27.18;44.55;100365.31;5096857;27;45479;-69
2023/08/01 06:13:19;;;;;;;;;1.33;1.33;;;;;27.10;44.94;100368.28;5096682;27;45434;-69
2023/08/01 06:15:44;;;;;;;;;2.67;1.00;;;;;27.06;44.45;100374.06;5097084;27;46937;-69
2023/08/01 06:18:11;;;;;;;;;3.67;2.00;;;;;27.09;44.75;100372.78;5084651;27;45396;-68
2023/08/01 06:20:37;;;;;;;;;1.00;1.00;;;;;27.11;45.11;100369.91;5096362;27;45488;-69
2023/08/01 06:23:02;;;;;;;;;1.00;1.00;;;;;27.06;44.92;100366.03;5096435;27;45338;-70
2023/08/01 06:25:27;;;;;;;;;4.33;2.00;;;;;27.14;45.45;100372.16;5095980;27;46022;-68
2023/08/01 06:27:53;;;;;;;;;2.00;2.00;;;;;27.17;45.21;100375.19;5096243;27;45322;-68
2023/08/01 06:30:18;;;;;;;;;3.00;1.00;;;;;27.20;45.48;100381.09;5076485;27;45459;-69
2023/08/01 06:32:43;;;;;;;;;1.00;1.00;;;;;27.21;44.88;100377.41;5076050;27;45335;-69
2023/08/01 06:35:09;;;;;;;;;2.00;2.00;;;;;27.23;44.65;100380.66;5076533;27;46044;-72
2023/08/01 06:37:34;;;;;;;;;7.00;3.00;;;;;27.25;45.04;100381.22;5076104;27;45379;-68
2023/08/01 06:40:00;;;;;;;;;2.67;2.00;;;;;27.26;45.50;100381.03;5076133;27;45489;-68
2023/08/01 06:42:26;;;;;;;;;2.33;2.33;;;;;27.32;44.69;100383.81;5076288;27;45491;-68
2023/08/01 06:44:51;;;;;;;;;5.67;3.00;;;;;27.34;45.45;100385.22;5091532;27;47126;-69
2023/08/01 06:47:16;;;;;;;;;1.00;1.00;;;;;27.36;45.33;100387.66;5075840;27;45368;-68
2023/08/01 06:49:42;;;;;;;;;3.00;1.00;;;;;27.38;45.05;100382.91;5076058;27;45443;-68
2023/08/01 06:52:07;;;;;;;;;3.00;2.00;;;;;27.39;45.08;100392.56;5085113;27;45388;-68
2023/08/01 06:54:33;;;;;;;;;3.00;2.00;;;;;27.42;44.52;100391.28;5096610;27;46190;-66
2023/08/01 06:56:59;;;;;;;;;3.67;2.00;;;;;27.45;45.08;100391.66;5096523;27;45315;-68
2023/08/01 06:59:25;;;;;;;;;1.00;1.00;;;;;27.49;44.76;100390.13;5096722;27;45295;-67
2023/08/01 07:01:50;;;;;;;;;3.50;2.00;;;;;27.51;44.53;100395.25;5095856;27;45462;-68
2023/08/01 07:04:15;;;;;;;;;1.67;1.33;;;;;27.54;45.03;100393.97;5088392;27;48170;-69
2023/08/01 07:06:41;;;;;;;;;3.00;1.00;;;;;27.55;44.66;100395.63;5109030;27;46931;-68
2023/08/01 07:09:06;;;;;;;;;1.00;1.00;;;;;27.56;44.64;100402.59;5110045;27;45419;-68
2023/08/01 07:11:32;;;;;;;;;2.00;1.00;;;;;27.56;44.02;100395.38;5091035;27;45326;-69
2023/08/01 07:13:57;;;;;;;;;1.33;1.33;;;;;27.56;44.18;100403.38;5103825;27;46484;-69
2023/08/01 07:16:22;;;;;;;;;2.00;2.00;;;;;27.57;44.53;100407.69;5098861;27;45854;-68
2023/08/01 07:18:48;;;;;;;;;5.67;3.33;;;;;27.58;44.59;100412.00;5096432;27;45476;-68
2023/08/01 07:21:14;;;;;;;;;1.67;1.67;;;;;27.61;44.61;100413.41;5112237;27;45335;-69
2023/08/01 07:23:39;;;;;;;;;2.33;2.33;;;;;27.65;44.77;100421.78;5098608;27;46274;-69
2023/08/01 07:26:04;;;;;;;;;4.33;2.00;;;;;27.68;44.53;100408.78;5108418;27;45770;-68
2023/08/01 07:28:30;;;;;;;;;2.00;2.00;;;;;27.76;44.56;100407.63;5106823;27;45595;-68
2023/08/01 07:31:04;;;;;;;;;2.67;2.00;;;;;27.82;43.94;100419.25;5098893;27;46513;-69
2023/08/01 07:33:30;;;;;;;;;1.00;1.00;;;;;27.80;44.54;100408.81;5103513;27;46313;-68
2023/08/01 07:35:55;;;;;;;;;3.33;3.00;;;;;27.83;44.27;100410.22;5103261;27;45558;-68
2023/08/01 07:38:20;;;;;;;;;3.00;2.00;;;;;27.83;44.57;100410.22;5094068;27;45522;-68
2023/08/01 07:40:46;;;;;;;;;2.00;1.67;;;;;27.85;44.61;100413.47;5094187;27;45522;-69
2023/08/01 07:43:12;;;;;;;;;2.00;2.00;;;;;27.85;44.71;100411.59;5096575;27;45399;-69
2023/08/01 07:45:38;;;;;;;;;2.33;2.00;;;;;27.84;44.71;100415.31;5098060;27;45462;-67
2023/08/01 07:48:03;;;;;;;;;2.33;1.33;;;;;27.84;44.47;100409.97;5100118;27;45666;-68
2023/08/01 07:50:29;;;;;;;;;3.00;2.67;;;;;27.83;44.16;100421.72;5110393;27;45764;-69
2023/08/01 07:52:54;;;;;;;;;4.00;3.00;;;;;27.84;44.35;100426.00;5108397;27;46948;-68
2023/08/01 07:55:20;;;;;;;;;1.00;1.00;;;;;27.84;44.09;100427.88;5093956;27;45434;-69
2023/08/01 07:57:46;;;;;;;;;2.67;2.67;;;;;27.82;44.21;100433.44;5098541;27;45400;-69
2023/08/01 08:00:12;;;;;;;;;2.67;2.00;;;;;27.83;44.41;100432.41;5103236;27;46008;-68
2023/08/01 08:02:37;;;;;;;;;2.33;1.00;;;;;27.81;44.31;100433.69;5110479;27;46896;-68
2023/08/01 08:05:02;;;;;;;;;3.33;3.00;;;;;27.83;44.36;100426.25;5104209;27;45504;-68
2023/08/01 08:07:28;;;;;;;;;5.00;3.00;;;;;27.84;44.40;100435.91;5102377;27;46278;-69
2023/08/01 08:09:55;;;;;;;;;5.00;3.67;;;;;27.83;44.72;100445.78;5094262;27;45587;-69
2023/08/01 08:12:21;;;;;;;;;2.00;2.00;;;;;27.83;43.98;100443.09;5093466;27;47138;-68
2023/08/01 08:14:46;;;;;;;;;2.67;2.67;;;;;27.83;44.65;100447.63;5092884;27;45874;-68
2023/08/01 08:17:11;;;;;;;;;4.00;4.00;;;;;27.83;43.94;100440.44;5097796;27;45781;-68
2023/08/01 08:19:37;;;;;;;;;4.00;3.00;;;;;27.82;44.31;100440.66;5093560;27;45633;-68
2023/08/01 08:22:02;;;;;;;;;2.00;2.00;;;;;27.83;43.72;100455.66;5109505;27;46955;-69
2023/08/01 08:24:28;;;;;;;;;3.67;2.00;;;;;27.84;44.12;100442.03;5109462;27;45787;-68
2023/08/01 08:26:53;;;;;;;;;3.00;1.00;;;;;27.85;43.64;100443.69;5110995;27;46764;-69
2023/08/01 08:29:19;;;;;;;;;1.00;1.00;;;;;27.87;44.42;100443.44;5109878;27;45296;-69
2023/08/01 08:31:44;;;;;;;;;1.67;1.67;;;;;27.86;44.33;100447.19;5094274;27;45511;-68
2023/08/01 08:34:09;;;;;;;;;2.67;1.67;;;;;27.88;44.32;100446.94;5102793;27;45482;-68
2023/08/01 08:36:34;;;;;;;;;2.00;2.00;;;;;27.88;43.75;100452.28;5096730;27;45490;-69
2023/08/01 08:39:00;;;;;;;;;4.00;2.00;;;;;27.86;44.08;100449.84;5109913;27;45509;-69
2023/08/01 08:41:27;;;;;;;;;2.00;2.00;;;;;27.85;44.01;100451.72;5111689;27;46003;-68
2023/08/01 08:43:56;;;;;;;;;6.33;3.00;;;;;27.84;44.50;100454.63;5105775;27;45540;-69
2023/08/01 08:46:29;;;;;;;;;2.67;2.00;;;;;27.83;44.35;100455.66;5097023;27;45487;-68
2023/08/01 08:48:57;;;;;;;;;2.00;2.00;;;;;27.84;44.12;100460.75;5108330;27;45398;-68
2023/08/01 08:51:26;;;;;;;;;4.67;2.67;;;;;27.84;44.50;100460.75;5103639;27;46264;-68
2023/08/01 08:53:54;;;;;;;;;2.00;2.00;;;;;27.83;44.26;100475.19;5097850;27;45689;-68
2023/08/01 08:56:20;;;;;;;;;3.00;2.33;;;;;27.83;43.67;100463.66;5100217;27;45938;-69
2023/08/01 08:58:47;;;;;;;;;0.67;0.00;;;;;27.82;43.69;100478.06;5103504;27;45457;-68
2023/08/01 09:01:12;;;;;;;;;3.00;3.00;;;;;27.82;43.86;100475.41;5096975;27;46326;-68
2023/08/01 09:03:38;;;;;;;;;3.00;2.33;;;;;27.80;43.89;100480.97;5097740;27;45537;-68
2023/08/01 09:06:11;;;;;;;;;2.00;2.00;;;;;27.82;44.41;100472.72;5102304;27;45402;-69
2023/08/01 09:08:41;;;;;;;;;1.33;1.33;;;;;27.84;43.80;100478.69;5074940;27;46119;-69
2023/08/01 09:11:07;;;;;;;;;2.00;2.00;;;;;27.84;44.36;100481.34;5102777;27;47441;-69
2023/08/01 09:13:33;;;;;;;;;4.00;2.67;;;;;27.83;44.18;100475.19;5096821;27;46726;-68
2023/08/01 09:16:01;;;;;;;;;4.33;2.00;;;;;27.83;43.65;100480.53;5107214;27;45378;-69
2023/08/01 09:18:27;;;;;;;;;2.00;2.00;;;;;27.83;43.79;100472.50;5094003;27;45734;-68
2023/08/01 09:20:53;;;;;;;;;2.33;2.00;;;;;27.84;43.36;100476.00;5099069;27;45952;-69
2023/08/01 09:23:19;;;;;;;;;2.00;2.00;;;;;27.85;44.15;100482.97;5091855;27;45500;-69
2023/08/01 09:25:45;;;;;;;;;3.00;2.00;;;;;27.84;43.83;100476.78;5092611;27;45409;-69
2023/08/01 09:28:22;;;;;;;;;4.33;2.67;;;;;27.85;44.34;100465.06;5102666;27;45593;-69
2023/08/01 09:30:55;;;;;;;;;3.67;2.33;;;;;27.87;43.60;100474.72;5097738;27;46209;-68
2023/08/01 09:33:21;;;;;;;;;2.00;2.00;;;;;27.86;43.68;100473.91;5100516;27;45449;-68
2023/08/01 09:35:49;;;;;;;;;2.00;1.00;;;;;27.86;44.20;100481.94;5112341;27;45597;-68
2023/08/01 09:38:15;;;;;;;;;3.00;3.00;;;;;27.87;44.00;100477.41;5101674;27;45492;-69
2023/08/01 09:40:43;;;;;;;;;5.67;3.33;;;;;27.87;44.21;100472.06;5096937;27;45377;-69
2023/08/01 09:43:10;;;;;;;;;2.33;2.00;;;;;27.87;43.81;100478.19;5095127;27;45413;-67
2023/08/01 09:45:35;;;;;;;;;2.67;2.33;;;;;27.85;43.76;100475.75;5101012;27;45405;-68
2023/08/01 09:48:01;;;;;;;;;2.00;2.00;;;;;27.87;43.79;100480.88;5111418;27;45519;-66
2023/08/01 09:50:26;;;;;;;;;4.00;2.33;;;;;27.87;44.21;100478.19;5097750;27;47126;-68
2023/08/01 09:52:52;;;;;;;;;2.33;2.00;;;;;27.87;43.86;100474.72;5108876;27;46531;-69
2023/08/01 09:55:34;;;;;;;;;2.67;1.67;;;;;27.85;44.20;100491.81;5099999;27;45572;-68
2023/08/01 09:58:00;;;;;;;;;2.33;2.33;;;;;27.85;44.10;100483.78;5101970;27;45467;-68
2023/08/01 10:00:27;;;;;;;;;3.00;3.00;;;;;27.85;43.65;100504.34;5106867;27;46152;-68
2023/08/01 10:02:54;;;;;;;;;1.67;1.67;;;;;27.85;43.61;100496.31;5104779;27;45539;-68
2023/08/01 10:05:21;;;;;;;;;3.00;1.67;;;;;27.85;43.67;100485.63;5098939;27;45562;-69
2023/08/01 10:07:51;;;;;;;;;2.33;2.33;;;;;27.82;42.93;100486.09;5096784;27;45737;-68
2023/08/01 10:10:17;;;;;;;;;4.33;4.33;;;;;27.70;42.46;100473.50;5097879;27;46324;-68
2023/08/01 10:12:48;;;;;;;;;5.00;4.00;;;;;27.57;42.65;100477.16;5092773;27;45498;-68
2023/08/01 10:15:15;;;;;;;;;4.67;4.00;;;;;27.44;42.12;100483.50;5101077;27;45458;-69
2023/08/01 10:17:41;;;;;;;;;5.00;3.00;;;;;27.34;42.69;100486.72;5097311;27;45802;-69
2023/08/01 10:20:07;;;;;;;;;4.00;2.00;;;;;27.25;42.47;100482.72;5092581;27;46250;-69
2023/08/01 10:22:33;;;;;;;;;2.67;2.67;;;;;27.16;42.41;100491.06;5090780;27;45451;-69
2023/08/01 10:24:58;;;;;;;;;4.00;3.33;;;;;27.11;43.20;100496.22;5092804;27;45471;-69
2023/08/01 10:27:24;;;;;;;;;4.67;3.00;;;;;27.06;42.55;100485.41;5092199;27;45673;-69
2023/08/01 10:29:57;;;;;;;;;3.00;3.00;;;;;27.01;42.86;100483.38;5096838;27;45913;-69
2023/08/01 10:32:39;;;;;;;;;3.67;2.33;;;;;26.96;43.36;100486.72;5092577;27;45626;-69
2023/08/01 10:35:06;;;;;;;;;3.67;3.33;;;;;26.96;42.78;100493.91;5091550;27;45412;-70
2023/08/01 10:37:47;;;;;;;;;3.33;3.33;;;;;26.92;42.72;100504.22;5096824;27;46006;-69
2023/08/01 10:40:12;;;;;;;;;3.00;2.67;;;;;26.90;43.10;100500.97;5087383;27;46268;-70
2023/08/01 10:42:39;;;;;;;;;2.33;2.33;;;;;26.86;42.65;100499.75;5090683;27;45480;-69
2023/08/01 10:45:05;;;;;;;;;3.00;3.00;;;;;26.84;42.85;100504.50;5092980;27;45533;-69
2023/08/01 10:47:31;;;;;;;;;7.33;3.67;;;;;26.80;42.33;100504.16;5101003;27;45474;-70
2023/08/01 10:49:57;;;;;;;;;5.00;3.00;;;;;26.77;42.84;100507.25;5102382;27;46276;-69
2023/08/01 10:52:29;;;;;;;;;5.00;3.00;;;;;26.76;42.75;100510.13;5095178;27;45587;-69
2023/08/01 10:55:01;;;;;;;;;5.00;5.00;;;;;26.68;42.98;100503.22;5095276;27;45545;-69
2023/08/01 10:57:28;;;;;;;;;2.00;2.00;;;;;26.72;42.63;100507.94;5104556;27;45501;-69
2023/08/01 10:59:55;;;;;;;;;4.00;4.00;;;;;26.72;42.57;100497.25;5099410;27;46440;-69
2023/08/01 11:02:25;;;;;;;;;3.00;3.00;;;;;26.72;42.29;100507.13;5098501;27;45621;-68
2023/08/01 11:05:02;;;;;;;;;5.33;3.00;;;;;26.68;42.38;100498.72;5090670;27;45414;-69
2023/08/01 11:07:28;;;;;;;;;3.33;3.33;;;;;26.63;41.93;100506.56;5101120;27;45459;-69
2023/08/01 11:10:09;;;;;;;;;4.00;3.00;;;;;26.59;42.05;100516.88;5093117;27;45468;-70
2023/08/01 11:12:42;;;;;;;;;5.00;3.00;;;;;26.56;42.40;100519.97;5097141;27;45972;-69
2023/08/01 11:15:12;;;;;;;;;3.33;3.33;;;;;26.56;42.40;100509.31;5092298;27;45589;-70
2023/08/01 11:17:39;;;;;;;;;1.67;1.67;;;;;26.56;43.08;100506.66;5090254;27;45481;-69
2023/08/01 11:20:07;;;;;;;;;4.00;2.00;;;;;26.59;42.58;100503.53;5102509;27;46421;-69